• Join FlightAware (Why Join?)
  • Login
  • US Flag 
04:44PM EDT


 

Airport Tracker/Info


-or-


 

Live Flight TrackerFlight Track Log ✈ G52668 ✈ 15-Apr-2014 ✈ ZSFZ / FOC - ZSLG / LYG

Flight Track Log - Related Links

Times and Time Zones

All times are in EDT time to prevent confusion due to time zone crossing. See the G52668 flight status page for this flight to view local times or setup timezone preferences in your user account.

Time Position Orientation Groundspeed Altitude Reporting Facility
EDT Latitude Longitude Course Direction KTS MPH feet Rate Location/Type
02:26AM 27.6141 119.5201 356° North  Level Estimated
02:27AM 27.7157 119.5113 356° North  Level Estimated
02:28AM 27.8173 119.5025 356° North  Level Estimated
02:29AM 27.9189 119.4937 356° North  Level Estimated
02:30AM 28.0205 119.4848 356° North  Level Estimated
02:31AM 28.1220 119.4760 356° North  Level Estimated
02:32AM 28.2236 119.4671 356° North  Level Estimated
02:33AM 28.3252 119.4582 356° North  Level Estimated
02:34AM 28.4268 119.4493 356° North  Level Estimated
02:35AM 28.5284 119.4403 356° North  Level Estimated
02:36AM 28.6300 119.4314 356° North  Level Estimated
02:37AM 28.7315 119.4224 356° North  Level Estimated
02:38AM 28.8331 119.4134 356° North  Level Estimated
02:39AM 28.9347 119.4044 356° North  Level Estimated
02:40AM 29.0363 119.3954 356° North  Level Estimated
02:41AM 29.1378 119.3864 356° North  Level Estimated
02:42AM 29.2394 119.3773 356° North  Level Estimated
02:43AM 29.3410 119.3682 356° North  Level Estimated
02:44AM 29.4426 119.3591 356° North  Level Estimated
02:45AM 29.5441 119.3500 356° North  Level Estimated
02:46AM 29.6457 119.3409 356° North  Level Estimated
02:47AM 29.7473 119.3317 356° North  Level Estimated
02:48AM 29.8489 119.3226 356° North  Level Estimated
02:49AM 29.9505 119.3134 356° North  Level Estimated
02:50AM 30.0520 119.3042 356° North  Level Estimated
02:51AM 30.1536 119.2950 356° North  Level Estimated
02:52AM 30.2552 119.2857 356° North  Level Estimated
02:53AM 30.3567 119.2765 356° North  Level Estimated
02:54AM 30.4583 119.2672 355° North  Level Estimated
02:55AM 30.5599 119.2579 355° North  Level Estimated
02:56AM 30.6614 119.2486 355° North  Level Estimated
02:57AM 30.7630 119.2392 355° North  Level Estimated
02:58AM 30.8646 119.2299 355° North  Level Estimated
02:59AM 30.9661 119.2205 355° North  Level Estimated
03:00AM 31.0677 119.2111 355° North  Level Estimated
03:01AM 31.1693 119.2017 355° North  Level Estimated
03:02AM 31.2708 119.1922 355° North  Level Estimated
03:03AM 31.3724 119.1828 355° North  Level Estimated
03:04AM 31.4739 119.1733 355° North  Level Estimated
03:05AM 31.5755 119.1638 355° North  Level Estimated
03:06AM 31.6771 119.1543 355° North  Level Estimated
03:07AM 31.7786 119.1447 355° North  Level Estimated
03:08AM 31.8802 119.1352 355° North  Level Estimated
03:09AM 31.9818 119.1256 355° North  Level Estimated
03:10AM 32.0833 119.1160 355° North  Level Estimated
03:11AM 32.1849 119.1064 355° North  Level Estimated
03:12AM 32.2864 119.0967 355° North  Level Estimated
03:13AM 32.3880 119.0870 355° North  Level Estimated
03:14AM 32.4895 119.0773 355° North  Level Estimated
03:15AM 32.5911 119.0676 355° North  Level Estimated
03:16AM 32.6926 119.0579 355° North  Level Estimated
03:17AM 32.7942 119.0481 355° North  Level Estimated
03:18AM 32.8957 119.0384 355° North  Level Estimated
03:19AM 32.9973 119.0286 355° North  Level Estimated
03:20AM 33.0989 119.0187 355° North  Level Estimated
03:21AM 33.2004 119.0089 355° North  Level Estimated
03:22AM 33.3020 118.9990 355° North  Level Estimated
03:23AM 33.4035 118.9891 355° North  Level Estimated
03:24AM 33.5051 118.9792 355° North  Level Estimated
03:25AM 33.6066 118.9693 355° North  Level Estimated
03:26AM 33.7081 118.9593 355° North  Level Estimated
03:27AM 33.8097 118.9493 355° North  Level Estimated
03:28AM 33.9112 118.9393 355° North  Level Estimated
03:29AM 34.0128 118.9293 355° North  Level Estimated
03:30AM 34.1143 118.9192 355° North  Level Estimated
03:31AM 34.2159 118.9091 355° North  Level Estimated
03:32AM 34.3174 118.8990 355° North  Level Estimated
03:33AM 34.4189 118.8889 355° North  Level Estimated
03:34AM 34.5205 118.8787 355° North  Level Estimated
03:35AM 34.5717 118.8736 355° North  Level Estimated
03:36AM 34.5717 118.8736 North  Level Estimated
03:37AM 34.5717 118.8736 North  Level Estimated
03:38AM 34.5717 118.8736 North  Level Estimated
03:39AM 34.5717 118.8736 North  Level Estimated
03:40AM 34.5717 118.8736 North  Level Estimated
03:41AM 34.5717 118.8736 North  Level Estimated
03:42AM 34.5717 118.8736 North  Level Estimated
03:43AM 34.5717 118.8736 North  Level Estimated
03:44AM 34.5717 118.8736 North  Level Estimated
03:45AM 34.5717 118.8736 North  Level Estimated
03:46AM 34.5717 118.8736 North  Level Estimated
03:47AM 34.5717 118.8736 North  Level Estimated
03:48AM 34.5717 118.8736 North  Level Estimated
03:49AM 34.5717 118.8736 North  Level Estimated
03:50AM 34.5717 118.8736 North  Level Estimated
03:51AM 34.5717 118.8736 North  Level Estimated
03:52AM 34.5717 118.8736 North  Level Estimated
03:53AM 34.5717 118.8736 North  Level Estimated
03:54AM 34.5717 118.8736 North  Level Estimated
03:55AM 34.5717 118.8736 North  Level Estimated
03:56AM 34.5717 118.8736 North  Level Estimated
03:57AM 34.5717 118.8736 North  Level Estimated
03:58AM 34.5717 118.8736 North  Level Estimated
03:59AM 34.5717 118.8736 North  Level Estimated
04:00AM 34.5717 118.8736 North  Level Estimated